Time;durP1;ratioP1;P1;durP2;ratioP2;P2;SDS_P1;SDS_P2;PMS_P1;PMS_P2;Temp;Humidity;BMP_temperature;BMP_pressure;BME280_temperature;BME280_humidity;BME280_pressure;Samples;Min_cycle;Max_cycle;Signal;HPM_P1;HPM_P2
2021/12/07 00:00:22;;;;;;;4.47;3.00;;;0.90;99.90;;;;;;6184067;22;20024;-86
2021/12/07 00:02:49;;;;;;;1.02;0.80;;;0.90;99.90;;;;;;6159399;23;20050;-86
2021/12/07 00:05:15;;;;;;;4.15;2.15;;;0.80;99.90;;;;;;6160450;23;20021;-85
2021/12/07 00:07:43;;;;;;;4.50;2.47;;;0.80;99.90;;;;;;6159930;22;20087;-86
2021/12/07 00:10:10;;;;;;;3.78;2.28;;;0.70;99.90;;;;;;6159430;23;20579;-86
2021/12/07 00:12:39;;;;;;;2.40;1.65;;;0.70;99.90;;;;;;6159899;23;20024;-86
2021/12/07 00:15:06;;;;;;;3.13;2.25;;;0.70;99.90;;;;;;6160582;23;20048;-86
2021/12/07 00:17:32;;;;;;;2.53;1.75;;;0.70;99.90;;;;;;6184885;23;20322;-86
2021/12/07 00:19:59;;;;;;;1.70;1.27;;;0.70;99.90;;;;;;6159813;23;20023;-87
2021/12/07 00:22:25;;;;;;;4.45;2.65;;;0.70;99.90;;;;;;6160583;22;20346;-86
2021/12/07 00:24:51;;;;;;;4.07;2.50;;;0.70;99.90;;;;;;6160037;23;20472;-86
2021/12/07 00:27:16;;;;;;;2.50;1.92;;;0.70;99.90;;;;;;6159451;23;20009;-87
2021/12/07 00:29:42;;;;;;;7.13;3.60;;;0.70;99.90;;;;;;6159659;22;20016;-87
2021/12/07 00:34:56;;;;;;;7.93;3.08;;;1.50;99.90;;;;;;6184187;22;20095;-87
2021/12/07 00:37:23;;;;;;;0.55;0.55;;;0.70;99.90;;;;;;6159494;23;20383;-87
2021/12/07 00:39:49;;;;;;;2.97;1.38;;;0.70;99.90;;;;;;6160169;22;20013;-87
2021/12/07 00:42:14;;;;;;;2.15;1.02;;;0.70;99.90;;;;;;6289850;22;20100;-87
2021/12/07 00:44:40;;;;;;;3.13;1.95;;;1.50;99.90;;;;;;6290088;22;20016;-87
2021/12/07 00:47:05;;;;;;;0.60;0.60;;;0.70;99.90;;;;;;6289728;22;20092;-87
2021/12/07 00:49:31;;;;;;;1.63;1.45;;;1.00;99.90;;;;;;6289523;22;20023;-87
2021/12/07 00:51:57;;;;;;;3.65;2.90;;;0.80;99.90;;;;;;6289731;22;20017;-87
2021/12/07 00:54:22;;;;;;;2.05;1.67;;;0.60;99.90;;;;;;6290049;22;20020;-86
2021/12/07 00:56:48;;;;;;;1.48;1.23;;;0.60;99.90;;;;;;6314802;22;20027;-87
2021/12/07 00:59:14;;;;;;;1.77;1.45;;;0.60;99.90;;;;;;6289868;22;20031;-87
2021/12/07 01:01:40;;;;;;;2.97;1.70;;;0.60;99.90;;;;;;6289582;22;20065;-87
2021/12/07 01:04:06;;;;;;;2.25;1.60;;;0.70;99.90;;;;;;6315890;22;20020;-87
2021/12/07 01:06:47;;;;;;;1.85;1.55;;;0.70;99.90;;;;;;6289450;22;20016;-87
2021/12/07 01:09:21;;;;;;;4.43;2.60;;;0.60;99.90;;;;;;6289696;22;20016;-87
2021/12/07 01:25:54;;;;;;;3.72;2.08;;;0.60;99.90;;;;;;6172728;22;20472;-87
2021/12/07 01:31:00;;;;;;;6.65;2.63;;;0.60;99.90;;;;;;6315733;22;20024;-87
2021/12/07 01:33:52;;;;;;;2.00;1.58;;;0.70;99.90;;;;;;6290152;22;20016;-87
2021/12/07 01:36:47;;;;;;;1.52;1.00;;;1.10;99.90;;;;;;6289295;22;20342;-88
2021/12/07 01:39:49;;;;;;;3.80;2.42;;;0.70;99.90;;;;;;6152519;23;20058;-88
2021/12/07 01:45:38;;;;;;;0.85;0.85;;;0.70;99.90;;;;;;6173613;22;20017;-87
2021/12/07 01:51:01;;;;;;;1.08;0.98;;;0.70;99.90;;;;;;6315407;22;20678;-87
2021/12/07 02:01:39;;;;;;;0.80;0.80;;;0.80;99.90;;;;;;6315312;22;20020;-87
2021/12/07 02:04:05;;;;;;;3.60;1.75;;;0.90;99.90;;;;;;6289399;22;20013;-87
2021/12/07 02:06:31;;;;;;;1.15;1.05;;;0.90;99.90;;;;;;6314861;22;20074;-87
2021/12/07 02:08:56;;;;;;;3.65;2.17;;;0.90;99.90;;;;;;6288660;22;20461;-87
2021/12/07 02:11:22;;;;;;;1.80;1.15;;;0.90;99.90;;;;;;6263569;22;20005;-87
2021/12/07 02:16:16;;;;;;;1.27;1.10;;;0.90;99.90;;;;;;6314223;22;20021;-87
2021/12/07 02:18:42;;;;;;;2.38;1.23;;;0.90;99.90;;;;;;6290035;22;20036;-87
2021/12/07 02:21:28;;;;;;;2.03;1.60;;;0.90;99.90;;;;;;6159430;22;20468;-87
2021/12/07 02:23:54;;;;;;;2.78;1.90;;;0.90;99.90;;;;;;6288105;22;20013;-87
2021/12/07 02:26:20;;;;;;;2.75;1.95;;;0.90;99.90;;;;;;6288825;22;20475;-87
2021/12/07 02:28:46;;;;;;;2.47;2.03;;;0.80;99.90;;;;;;6288885;22;20032;-87
2021/12/07 02:31:12;;;;;;;2.38;1.92;;;0.80;99.90;;;;;;6290373;22;20008;-87
2021/12/07 02:33:39;;;;;;;2.17;1.67;;;0.90;99.90;;;;;;6291804;22;20021;-87
2021/12/07 02:36:06;;;;;;;3.55;2.13;;;0.90;99.90;;;;;;6184956;23;20020;-87
2021/12/07 02:38:32;;;;;;;3.00;1.60;;;0.90;99.90;;;;;;6292623;22;20341;-87
2021/12/07 02:40:58;;;;;;;5.65;2.95;;;0.90;99.90;;;;;;6292030;22;20449;-87
2021/12/07 02:43:24;;;;;;;2.45;1.75;;;0.90;99.90;;;;;;6292226;22;20009;-86
2021/12/07 02:45:50;;;;;;;2.67;1.48;;;0.90;99.90;;;;;;6291368;22;20379;-87
2021/12/07 02:48:15;;;;;;;3.70;2.67;;;0.90;99.90;;;;;;6291715;22;20013;-87
2021/12/07 02:50:41;;;;;;;2.20;1.67;;;0.90;99.90;;;;;;6292100;22;20445;-87
2021/12/07 02:53:07;;;;;;;1.65;1.33;;;0.90;99.90;;;;;;6291919;22;20149;-87
2021/12/07 02:55:34;;;;;;;3.90;2.20;;;0.90;99.90;;;;;;6317755;22;20023;-86
2021/12/07 02:57:59;;;;;;;2.78;1.73;;;1.00;99.90;;;;;;6292138;22;20349;-86
2021/12/07 03:00:32;;;;;;;2.03;1.45;;;1.00;99.90;;;;;;6290379;22;20042;-87
2021/12/07 03:03:04;;;;;;;1.02;0.90;;;1.00;99.90;;;;;;6291488;22;20013;-86
2021/12/07 03:27:57;;;;;;;1.55;1.13;;;1.00;99.90;;;;;;6317715;22;20020;-86
2021/12/07 03:30:23;;;;;;;1.35;1.25;;;1.10;99.90;;;;;;6291525;22;20009;-86
2021/12/07 03:32:49;;;;;;;1.70;1.35;;;1.10;99.90;;;;;;6292040;22;20020;-86
2021/12/07 03:35:16;;;;;;;1.75;1.38;;;1.00;99.90;;;;;;6317657;22;20012;-86
2021/12/07 03:37:42;;;;;;;0.93;0.60;;;1.00;99.90;;;;;;6291333;22;20063;-86
2021/12/07 03:40:10;;;;;;;0.73;0.73;;;0.90;99.90;;;;;;6317432;22;20387;-86
2021/12/07 03:42:36;;;;;;;3.03;2.05;;;0.90;99.90;;;;;;6317437;22;20019;-86
2021/12/07 03:45:05;;;;;;;4.68;1.23;;;1.00;99.90;;;;;;6317485;22;20040;-86
2021/12/07 03:47:31;;;;;;;1.23;0.90;;;1.00;99.90;;;;;;6160399;23;20028;-86
2021/12/07 03:49:56;;;;;;;0.85;0.80;;;1.00;99.90;;;;;;6291689;22;20017;-86
2021/12/07 03:52:22;;;;;;;0.40;0.40;;;1.00;99.90;;;;;;6291186;22;20346;-86
2021/12/07 03:54:47;;;;;;;0.82;0.82;;;1.00;99.90;;;;;;6291312;22;20441;-86
2021/12/07 03:57:14;;;;;;;1.38;1.10;;;0.90;99.90;;;;;;6291057;22;20055;-86
2021/12/07 03:59:39;;;;;;;0.60;0.60;;;0.90;99.90;;;;;;6317237;22;20015;-86
2021/12/07 04:02:07;;;;;;;2.22;2.10;;;1.00;99.90;;;;;;6291313;22;20016;-87
2021/12/07 04:04:33;;;;;;;1.10;0.85;;;1.00;99.90;;;;;;6160708;22;20626;-86
2021/12/07 04:06:59;;;;;;;0.85;0.85;;;1.00;99.90;;;;;;6291419;22;20401;-86
2021/12/07 04:09:25;;;;;;;0.50;0.50;;;1.00;99.90;;;;;;6317324;22;20052;-86
2021/12/07 04:11:50;;;;;;;0.52;0.52;;;1.00;99.90;;;;;;6291010;22;20024;-86
2021/12/07 04:14:16;;;;;;;0.40;0.40;;;1.00;99.90;;;;;;6317043;22;20157;-86
2021/12/07 04:16:41;;;;;;;0.40;0.40;;;1.00;99.90;;;;;;6316390;22;20013;-86
2021/12/07 04:19:07;;;;;;;0.40;0.40;;;1.00;99.90;;;;;;6291524;22;20013;-86
2021/12/07 04:21:33;;;;;;;0.40;0.40;;;1.10;99.90;;;;;;6291046;22;20065;-86
2021/12/07 04:23:58;;;;;;;6.53;3.63;;;1.10;99.90;;;;;;6291106;22;20496;-86
2021/12/07 04:26:25;;;;;;;0.50;0.50;;;1.00;99.90;;;;;;6291380;22;20013;-86
2021/12/07 04:28:51;;;;;;;0.70;0.63;;;1.00;99.90;;;;;;6291958;22;20013;-86
2021/12/07 04:31:17;;;;;;;0.45;0.45;;;1.00;99.90;;;;;;6317040;22;20137;-86
2021/12/07 04:33:43;;;;;;;0.40;0.40;;;1.00;99.90;;;;;;6160587;22;20024;-86
2021/12/07 04:36:10;;;;;;;0.60;0.60;;;1.00;99.90;;;;;;6290685;22;20009;-85
2021/12/07 04:38:36;;;;;;;1.63;1.52;;;0.90;99.90;;;;;;6290737;22;20066;-86
2021/12/07 04:41:03;;;;;;;0.40;0.40;;;0.90;99.90;;;;;;6290739;22;20009;-86
2021/12/07 04:43:28;;;;;;;1.55;1.13;;;1.20;99.90;;;;;;6291021;22;20035;-86
2021/12/07 04:46:16;;;;;;;0.90;0.88;;;0.90;99.90;;;;;;6290669;22;20048;-86
2021/12/07 04:59:32;;;;;;;1.38;1.05;;;0.90;99.90;;;;;;6316588;22;20023;-86
2021/12/07 05:01:58;;;;;;;1.67;1.00;;;0.90;99.90;;;;;;6290027;22;20013;-86
2021/12/07 05:04:27;;;;;;;3.70;2.00;;;0.90;99.90;;;;;;6290237;22;20034;-86
2021/12/07 05:07:00;;;;;;;2.85;1.73;;;0.90;99.90;;;;;;6290763;22;20091;-86
2021/12/07 05:14:36;;;;;;;0.85;0.77;;;1.00;99.90;;;;;;6316741;22;20441;-86
2021/12/07 05:25:34;;;;;;;1.88;1.48;;;1.10;99.90;;;;;;6316646;22;20465;-86
2021/12/07 05:38:55;;;;;;;3.75;1.25;;;1.10;99.90;;;;;;6316922;22;20066;-86
2021/12/07 05:41:24;;;;;;;5.03;2.00;;;1.10;99.90;;;;;;6316111;22;20454;-86
2021/12/07 05:43:49;;;;;;;5.07;1.60;;;1.10;99.90;;;;;;6290251;22;20028;-86
2021/12/07 05:46:16;;;;;;;1.00;0.95;;;1.00;99.90;;;;;;6289836;22;20021;-86
2021/12/07 05:48:42;;;;;;;1.13;1.05;;;1.00;99.90;;;;;;6290460;22;20075;-86
2021/12/07 05:51:08;;;;;;;6.13;2.97;;;1.00;99.90;;;;;;6289778;22;20013;-85
2021/12/07 05:53:35;;;;;;;3.63;1.92;;;1.00;99.90;;;;;;6289804;22;20472;-85
2021/12/07 05:56:01;;;;;;;2.08;1.45;;;1.00;99.90;;;;;;6184668;22;20019;-85
2021/12/07 05:58:27;;;;;;;7.75;1.42;;;1.00;99.90;;;;;;6289648;22;20013;-85
2021/12/07 06:00:57;;;;;;;0.60;0.60;;;1.00;99.90;;;;;;6289863;22;20005;-85
2021/12/07 06:03:24;;;;;;;2.13;1.80;;;1.00;99.90;;;;;;6289765;22;20087;-85
2021/12/07 06:05:50;;;;;;;1.70;1.13;;;1.00;99.90;;;;;;6289317;22;20472;-85
2021/12/07 06:08:15;;;;;;;4.63;2.60;;;1.00;99.90;;;;;;6289642;22;20021;-85
2021/12/07 06:10:41;;;;;;;2.05;1.33;;;1.00;99.90;;;;;;6289798;22;20012;-85
2021/12/07 06:13:06;;;;;;;2.90;1.70;;;1.00;99.90;;;;;;6289759;22;20012;-85
2021/12/07 06:15:35;;;;;;;2.13;1.60;;;1.00;99.90;;;;;;6315746;22;20087;-85
2021/12/07 06:18:00;;;;;;;2.75;1.75;;;1.10;99.90;;;;;;6159413;23;20013;-85
2021/12/07 06:20:26;;;;;;;2.03;1.58;;;1.00;99.90;;;;;;6289700;22;20013;-85
2021/12/07 06:22:52;;;;;;;3.15;2.05;;;1.00;99.90;;;;;;6289845;22;20005;-85
2021/12/07 06:25:18;;;;;;;2.05;1.33;;;1.00;99.90;;;;;;6290348;22;20058;-86
2021/12/07 06:27:44;;;;;;;3.70;2.67;;;0.90;99.90;;;;;;6316203;22;20525;-87
2021/12/07 06:30:11;;;;;;;2.63;1.65;;;0.90;99.90;;;;;;6289564;22;20040;-86
2021/12/07 06:32:37;;;;;;;1.40;1.20;;;0.90;99.90;;;;;;6184542;23;20013;-86
2021/12/07 06:35:04;;;;;;;1.23;0.98;;;0.90;99.90;;;;;;6290070;22;20005;-86
2021/12/07 06:37:30;;;;;;;2.22;1.88;;;0.90;99.90;;;;;;6289943;22;20032;-86
2021/12/07 06:39:56;;;;;;;3.03;1.63;;;0.80;99.90;;;;;;6289701;22;20376;-86
2021/12/07 06:42:21;;;;;;;1.13;0.90;;;0.80;99.90;;;;;;6289598;22;20027;-86
2021/12/07 06:44:49;;;;;;;6.68;1.80;;;0.80;99.90;;;;;;6289499;22;20057;-87
2021/12/07 06:47:15;;;;;;;6.55;3.08;;;0.80;99.90;;;;;;6289474;22;20021;-86
2021/12/07 06:49:41;;;;;;;2.97;1.45;;;0.80;99.90;;;;;;6289641;22;20065;-87
2021/12/07 06:52:07;;;;;;;2.42;2.00;;;0.80;99.90;;;;;;6287011;22;20023;-86
2021/12/07 06:54:32;;;;;;;4.35;2.40;;;0.80;99.90;;;;;;6313876;22;20013;-86
2021/12/07 06:56:58;;;;;;;2.78;2.03;;;0.80;99.90;;;;;;6158170;23;20101;-86
2021/12/07 06:59:23;;;;;;;1.98;1.48;;;0.80;99.90;;;;;;6288238;22;20074;-87
2021/12/07 07:01:49;;;;;;;3.03;1.50;;;0.80;99.90;;;;;;6288011;22;20013;-87
2021/12/07 07:04:15;;;;;;;1.95;1.65;;;0.90;99.90;;;;;;6288667;22;20028;-87
2021/12/07 07:06:42;;;;;;;6.68;2.70;;;0.90;99.90;;;;;;6290020;22;20450;-86
2021/12/07 07:09:09;;;;;;;6.65;2.95;;;0.90;99.90;;;;;;6159371;22;20634;-86
2021/12/07 07:11:35;;;;;;;1.85;1.10;;;0.90;99.90;;;;;;6282991;22;20020;-86
2021/12/07 07:14:01;;;;;;;3.72;1.35;;;1.00;99.90;;;;;;6288434;22;20075;-86
2021/12/07 07:16:28;;;;;;;5.57;2.33;;;1.00;99.90;;;;;;6289429;22;20020;-86
2021/12/07 07:18:55;;;;;;;2.78;1.48;;;1.10;99.90;;;;;;6290114;22;20063;-85
2021/12/07 07:21:22;;;;;;;2.75;1.33;;;1.10;99.90;;;;;;6184788;22;20349;-85
2021/12/07 07:23:48;;;;;;;0.85;0.80;;;1.20;99.90;;;;;;6291136;22;20009;-85
2021/12/07 07:26:13;;;;;;;1.10;0.93;;;1.20;99.90;;;;;;6160186;23;20456;-86
2021/12/07 07:28:39;;;;;;;1.13;1.00;;;1.30;99.90;;;;;;6291045;22;20073;-87
2021/12/07 07:31:08;;;;;;;9.38;1.02;;;1.30;99.90;;;;;;6316532;22;20027;-85
2021/12/07 07:33:34;;;;;;;1.27;0.90;;;1.30;99.90;;;;;;6289974;22;20450;-85
2021/12/07 07:36:22;;;;;;;0.60;0.60;;;1.30;99.90;;;;;;6289809;22;20023;-84
2021/12/07 07:38:48;;;;;;;2.03;1.45;;;1.30;99.90;;;;;;6291109;22;20013;-84
2021/12/07 07:41:13;;;;;;;0.40;0.40;;;1.30;99.90;;;;;;6290096;22;20346;-84
2021/12/07 07:43:39;;;;;;;0.65;0.65;;;1.30;99.90;;;;;;6290251;22;20062;-84
2021/12/07 07:46:05;;;;;;;1.20;1.10;;;1.30;99.90;;;;;;6289587;22;20028;-86
2021/12/07 07:48:31;;;;;;;2.00;1.30;;;1.30;99.90;;;;;;6289721;22;20024;-88
2021/12/07 07:50:57;;;;;;;1.13;1.02;;;1.30;99.90;;;;;;6290457;22;20013;-87
2021/12/07 07:53:22;;;;;;;0.40;0.40;;;1.30;99.90;;;;;;6184811;23;20319;-86
2021/12/07 07:55:49;;;;;;;2.13;1.10;;;1.30;99.90;;;;;;6290525;22;20020;-87
2021/12/07 07:58:15;;;;;;;1.13;1.02;;;1.30;99.90;;;;;;6289438;22;20058;-87
2021/12/07 08:00:42;;;;;;;0.82;0.75;;;1.30;99.90;;;;;;6290481;22;20013;-86
2021/12/07 08:03:08;;;;;;;2.08;1.30;;;1.30;99.90;;;;;;6290143;22;20016;-84
2021/12/07 08:05:37;;;;;;;0.73;0.70;;;1.30;99.90;;;;;;6315938;22;20044;-84
2021/12/07 08:08:03;;;;;;;2.38;1.35;;;1.30;99.90;;;;;;6290153;22;20013;-85
2021/12/07 08:10:29;;;;;;;8.50;1.80;;;1.30;99.90;;;;;;6290105;22;20016;-85
2021/12/07 08:13:43;;;;;;;0.80;0.80;;;1.40;99.90;;;;;;6289956;22;20013;-84
2021/12/07 08:16:15;;;;;;;11.32;1.55;;;1.30;99.90;;;;;;6289521;22;20391;-85
2021/12/07 08:18:50;;;;;;;1.52;1.10;;;1.40;99.90;;;;;;6290419;22;20009;-83
2021/12/07 08:21:42;;;;;;;1.13;1.00;;;1.40;99.90;;;;;;6290952;22;20013;-82
2021/12/07 08:24:08;;;;;;;2.58;1.70;;;1.40;99.90;;;;;;6290326;22;20345;-83
2021/12/07 08:26:34;;;;;;;1.40;0.68;;;1.50;99.90;;;;;;6289988;22;20012;-83
2021/12/07 08:29:00;;;;;;;1.83;1.17;;;1.50;99.90;;;;;;6289639;22;20021;-84
2021/12/07 08:31:28;;;;;;;0.68;0.68;;;1.60;99.90;;;;;;6315965;22;20031;-83
2021/12/07 08:33:54;;;;;;;0.82;0.70;;;1.60;99.90;;;;;;6184665;22;20022;-83
2021/12/07 08:36:19;;;;;;;2.55;1.27;;;1.60;99.90;;;;;;6158453;22;20067;-83
2021/12/07 08:38:46;;;;;;;1.52;1.17;;;1.70;99.90;;;;;;6288811;22;20013;-82
2021/12/07 08:41:13;;;;;;;1.40;1.30;;;1.70;99.90;;;;;;6316012;22;20012;-84
2021/12/07 08:43:40;;;;;;;1.23;1.00;;;1.70;99.90;;;;;;6289297;22;20084;-83
2021/12/07 08:46:07;;;;;;;1.05;0.57;;;1.80;99.90;;;;;;6288824;22;20021;-83
2021/12/07 08:48:34;;;;;;;3.60;1.48;;;1.80;99.90;;;;;;6288928;22;20016;-83
2021/12/07 08:51:00;;;;;;;4.70;2.47;;;1.80;99.90;;;;;;6159124;22;20073;-83
2021/12/07 08:53:28;;;;;;;4.53;2.03;;;1.90;99.90;;;;;;6315416;22;20056;-82
2021/12/07 09:01:26;;;;;;;0.68;0.68;;;1.90;99.90;;;;;;6314735;22;20020;-88
2021/12/07 09:03:54;;;;;;;0.60;0.60;;;2.00;99.90;;;;;;6289546;22;20036;-81
2021/12/07 09:06:19;;;;;;;0.38;0.38;;;2.00;99.90;;;;;;6315020;22;20512;-82
2021/12/07 09:08:45;;;;;;;0.98;0.93;;;2.00;99.90;;;;;;6315037;22;20059;-82
2021/12/07 09:11:12;;;;;;;1.85;1.25;;;2.00;99.90;;;;;;6314148;22;20021;-82
2021/12/07 09:13:39;;;;;;;1.75;1.38;;;2.10;99.90;;;;;;6313738;22;20013;-82
2021/12/07 09:16:05;;;;;;;0.70;0.70;;;2.10;99.90;;;;;;6314830;22;20101;-82
2021/12/07 09:18:31;;;;;;;1.05;0.77;;;2.20;99.90;;;;;;6288555;22;20009;-82
2021/12/07 09:20:57;;;;;;;2.20;1.20;;;2.20;99.90;;;;;;6289104;22;20008;-82
2021/12/07 09:23:24;;;;;;;0.80;0.75;;;2.20;99.90;;;;;;6289431;22;20019;-82
2021/12/07 09:25:53;;;;;;;0.68;0.47;;;2.30;99.90;;;;;;6288835;22;20055;-83
2021/12/07 09:28:19;;;;;;;1.38;0.82;;;2.30;99.90;;;;;;6157416;22;20013;-82
2021/12/07 09:30:51;;;;;;;1.02;0.93;;;2.30;99.90;;;;;;6288956;22;20027;-83
2021/12/07 09:33:18;;;;;;;4.22;3.72;;;3.30;99.90;;;;;;6288195;22;20009;-83
2021/12/07 09:35:44;;;;;;;0.60;0.60;;;2.40;99.90;;;;;;6289304;22;20044;-82
2021/12/07 09:38:11;;;;;;;1.33;1.02;;;2.50;99.90;;;;;;6288031;22;20383;-82
2021/12/07 09:40:38;;;;;;;0.80;0.80;;;2.50;99.90;;;;;;6289204;22;20087;-83
2021/12/07 09:43:04;;;;;;;2.45;1.05;;;2.60;99.90;;;;;;6315073;22;20012;-82
2021/12/07 09:45:31;;;;;;;0.70;0.60;;;2.60;99.90;;;;;;6289826;22;20091;-83
2021/12/07 09:48:02;;;;;;;4.82;1.23;;;2.70;99.90;;;;;;6288529;22;20063;-83
2021/12/07 09:50:29;;;;;;;5.03;2.08;;;2.70;99.90;;;;;;6289263;22;20013;-82
2021/12/07 09:52:54;;;;;;;0.65;0.65;;;2.60;99.90;;;;;;6313095;22;20392;-82
2021/12/07 09:55:22;;;;;;;2.10;1.52;;;2.60;99.90;;;;;;6313519;22;20059;-83
2021/12/07 09:57:52;;;;;;;0.90;0.80;;;2.70;99.90;;;;;;6288573;22;20009;-82
2021/12/07 10:00:23;;;;;;;1.42;1.15;;;2.80;99.90;;;;;;6314872;22;20016;-82
2021/12/07 10:02:57;;;;;;;3.72;1.48;;;2.80;99.90;;;;;;6158684;22;20390;-82
2021/12/07 10:05:29;;;;;;;3.13;1.90;;;2.80;99.90;;;;;;6157884;23;20021;-82
2021/12/07 10:08:03;;;;;;;5.32;2.85;;;2.80;99.90;;;;;;6158575;23;20065;-82
2021/12/07 10:11:11;;;;;;;2.47;1.48;;;2.90;99.90;;;;;;6158901;22;20016;-82
2021/12/07 10:13:47;;;;;;;1.48;1.25;;;2.90;99.90;;;;;;6158079;23;20016;-82
2021/12/07 10:16:15;;;;;;;1.85;1.10;;;3.00;99.90;;;;;;6157133;23;20017;-82
2021/12/07 10:18:42;;;;;;;1.77;0.95;;;3.00;99.90;;;;;;6157688;22;20028;-82
2021/12/07 10:21:38;;;;;;;1.00;0.88;;;3.10;99.90;;;;;;6155748;23;20012;-82
2021/12/07 10:24:09;;;;;;;4.57;1.75;;;3.20;99.90;;;;;;6158763;23;20008;-82
2021/12/07 10:26:40;;;;;;;1.75;1.15;;;3.20;99.90;;;;;;6157858;23;20530;-82
2021/12/07 10:29:15;;;;;;;3.05;1.50;;;3.20;99.90;;;;;;6158319;22;20008;-83
2021/12/07 10:31:51;;;;;;;2.85;1.58;;;3.30;99.90;;;;;;6158162;23;20078;-83
2021/12/07 10:34:22;;;;;;;3.00;2.08;;;3.30;99.90;;;;;;6158543;23;20054;-81
2021/12/07 10:37:08;;;;;;;1.17;1.08;;;3.40;99.90;;;;;;6157457;22;20019;-82
2021/12/07 10:39:39;;;;;;;2.03;1.63;;;3.40;99.90;;;;;;6183073;23;20094;-82
2021/12/07 10:42:11;;;;;;;4.03;1.73;;;3.50;99.90;;;;;;6184272;22;20088;-82
2021/12/07 10:45:03;;;;;;;1.15;1.05;;;3.50;99.90;;;;;;6184248;22;20397;-82
2021/12/07 10:47:30;;;;;;;8.55;1.40;;;3.60;99.90;;;;;;6158428;22;20017;-82
2021/12/07 10:49:59;;;;;;;1.40;1.13;;;3.60;99.90;;;;;;6159285;23;20048;-82
2021/12/07 10:52:33;;;;;;;1.00;0.85;;;3.80;99.90;;;;;;6159797;22;20100;-84
2021/12/07 10:55:12;;;;;;;1.77;1.15;;;3.70;99.90;;;;;;6160780;22;20463;-82
2021/12/07 10:58:13;;;;;;;1.17;0.80;;;3.80;99.90;;;;;;6158770;23;20020;-83
2021/12/07 11:00:51;;;;;;;4.60;2.15;;;3.80;99.90;;;;;;6185492;22;20084;-81
2021/12/07 11:03:25;;;;;;;5.78;1.20;;;4.00;99.90;;;;;;6160527;23;20484;-82
2021/12/07 11:05:55;;;;;;;3.40;1.30;;;4.10;99.90;;;;;;6159505;23;20043;-81
2021/12/07 11:08:25;;;;;;;0.95;0.88;;;4.00;99.90;;;;;;6183185;23;20066;-81
2021/12/07 11:10:51;;;;;;;4.88;1.60;;;4.10;99.90;;;;;;6183671;22;20016;-82
2021/12/07 11:13:34;;;;;;;2.45;1.20;;;4.20;99.90;;;;;;6156532;22;20116;-81
2021/12/07 11:16:04;;;;;;;4.32;2.17;;;4.20;99.90;;;;;;6203114;22;20438;-83
2021/12/07 11:18:34;;;;;;;2.05;1.30;;;4.20;99.90;;;;;;6288218;22;20020;-83
2021/12/07 11:21:05;;;;;;;7.43;2.28;;;4.30;99.90;;;;;;6288476;22;20013;-83
2021/12/07 11:23:34;;;;;;;2.53;1.65;;;4.40;99.90;;;;;;6314742;22;20080;-85
2021/12/07 11:31:24;;;;;;;2.55;1.25;;;4.50;99.90;;;;;;6184074;23;20448;-86
2021/12/07 11:33:53;;;;;;;2.53;1.13;;;4.60;99.90;;;;;;6287849;22;20023;-86
2021/12/07 11:36:23;;;;;;;3.85;2.10;;;4.70;99.90;;;;;;6315316;22;20452;-86
2021/12/07 11:38:50;;;;;;;1.08;0.80;;;4.70;99.90;;;;;;6289295;22;20012;-86
2021/12/07 11:41:32;;;;;;;0.75;0.70;;;4.90;99.90;;;;;;6159012;22;20065;-86
2021/12/07 11:44:06;;;;;;;1.65;1.00;;;4.80;99.90;;;;;;6289590;22;20013;-86
2021/12/07 11:46:33;;;;;;;1.60;1.33;;;4.90;99.90;;;;;;6289150;22;20020;-86
2021/12/07 11:49:16;;;;;;;1.02;0.75;;;5.00;99.90;;;;;;6290475;22;20051;-86
2021/12/07 11:51:45;;;;;;;11.10;2.03;;;5.00;99.90;;;;;;6314972;22;20186;-84
2021/12/07 11:54:11;;;;;;;2.03;1.20;;;5.10;99.90;;;;;;6159062;22;20021;-84
2021/12/07 11:56:38;;;;;;;5.68;2.30;;;5.10;99.90;;;;;;6289114;22;20016;-83
2021/12/07 11:59:04;;;;;;;6.53;1.35;;;5.20;99.90;;;;;;6289684;22;20105;-85
2021/12/07 12:01:30;;;;;;;2.58;1.88;;;5.20;99.90;;;;;;6289689;22;20019;-85
2021/12/07 12:03:56;;;;;;;19.95;3.00;;;5.30;99.90;;;;;;6288784;22;20423;-85
2021/12/07 12:06:21;;;;;;;11.68;1.73;;;5.30;99.90;;;;;;6315172;22;20250;-85
2021/12/07 12:08:49;;;;;;;2.10;1.75;;;5.40;99.90;;;;;;6289836;22;20097;-85
2021/12/07 12:11:45;;;;;;;3.03;1.55;;;5.40;99.90;;;;;;6289398;22;20100;-85
2021/12/07 12:14:38;;;;;;;2.15;0.95;;;5.30;99.90;;;;;;6315853;22;20091;-85
2021/12/07 12:17:43;;;;;;;1.33;0.80;;;5.40;99.90;;;;;;6289218;22;20059;-85
2021/12/07 12:20:39;;;;;;;8.27;1.80;;;5.40;99.90;;;;;;6289251;22;20012;-85
2021/12/07 12:23:42;;;;;;;5.63;1.60;;;5.30;99.90;;;;;;6183563;22;20016;-85
2021/12/07 12:26:10;;;;;;;0.80;0.55;;;5.30;99.90;;;;;;6289386;22;20119;-85
2021/12/07 12:28:49;;;;;;;0.82;0.80;;;5.30;99.90;;;;;;6288495;22;20019;-85
2021/12/07 12:31:17;;;;;;;0.95;0.73;;;5.20;99.90;;;;;;6156377;22;20103;-85
2021/12/07 12:33:55;;;;;;;4.68;2.17;;;5.20;99.90;;;;;;6287044;22;20346;-85
2021/12/07 12:36:24;;;;;;;1.05;0.88;;;5.20;99.90;;;;;;6313946;22;20016;-85
2021/12/07 12:39:05;;;;;;;3.70;1.42;;;5.20;99.90;;;;;;6288667;22;20008;-85
2021/12/07 12:41:31;;;;;;;1.52;0.98;;;5.10;99.90;;;;;;6289031;22;20441;-85
2021/12/07 12:44:05;;;;;;;1.73;0.95;;;5.00;99.90;;;;;;6284209;22;20019;-85
2021/12/07 12:46:34;;;;;;;2.95;1.60;;;5.00;99.90;;;;;;6288786;22;20019;-85
2021/12/07 12:49:11;;;;;;;1.55;1.05;;;5.00;99.90;;;;;;6289070;22;20019;-85
2021/12/07 12:51:48;;;;;;;1.40;1.10;;;4.90;99.90;;;;;;6289158;22;20043;-85
2021/12/07 12:54:15;;;;;;;1.17;0.80;;;4.90;99.90;;;;;;6288519;22;20015;-85
2021/12/07 12:56:41;;;;;;;5.80;3.38;;;4.90;99.90;;;;;;6289548;22;20391;-85
2021/12/07 12:59:10;;;;;;;0.35;0.35;;;4.90;99.90;;;;;;6288904;22;20095;-85
2021/12/07 13:01:38;;;;;;;1.17;1.08;;;4.90;99.90;;;;;;6288680;22;20472;-85
2021/12/07 13:04:29;;;;;;;1.40;0.85;;;4.90;99.90;;;;;;6158983;22;20013;-85
2021/12/07 13:07:23;;;;;;;0.68;0.68;;;4.90;99.90;;;;;;6201550;22;20023;-85
2021/12/07 13:09:54;;;;;;;1.77;0.68;;;4.80;99.90;;;;;;6315979;22;20020;-85
2021/12/07 13:12:32;;;;;;;3.45;1.67;;;4.90;99.90;;;;;;6288888;22;20013;-85
2021/12/07 13:15:07;;;;;;;7.40;1.85;;;4.80;99.90;;;;;;6158551;22;20017;-85
2021/12/07 13:17:42;;;;;;;10.60;2.00;;;4.80;99.90;;;;;;6230666;22;20009;-85
2021/12/07 13:20:29;;;;;;;3.92;2.60;;;4.70;99.90;;;;;;6315459;22;20571;-85
2021/12/07 13:23:08;;;;;;;4.97;2.17;;;4.70;99.90;;;;;;6289351;22;20049;-85
2021/12/07 13:25:49;;;;;;;3.70;1.98;;;4.70;99.90;;;;;;6315544;22;20009;-85
2021/12/07 13:28:22;;;;;;;8.02;3.10;;;4.60;99.90;;;;;;6158701;22;20016;-85
2021/12/07 13:31:08;;;;;;;4.13;1.85;;;4.60;99.90;;;;;;6288672;22;20467;-85
2021/12/07 13:33:41;;;;;;;5.60;2.08;;;4.60;99.90;;;;;;6289214;22;20077;-85
2021/12/07 13:36:34;;;;;;;8.10;4.85;;;4.50;99.90;;;;;;6288416;22;20016;-85
2021/12/07 13:39:16;;;;;;;4.70;2.90;;;4.50;99.90;;;;;;6315247;22;20066;-85
2021/12/07 13:41:54;;;;;;;1.48;1.15;;;4.40;99.90;;;;;;6315522;22;20019;-85
2021/12/07 13:44:20;;;;;;;2.60;1.02;;;4.40;99.90;;;;;;6288776;22;20345;-84
2021/12/07 13:46:46;;;;;;;2.80;0.98;;;4.40;99.90;;;;;;6288556;22;20048;-85
2021/12/07 13:49:13;;;;;;;2.42;1.88;;;4.40;99.90;;;;;;6289214;22;20031;-84
2021/12/07 13:51:39;;;;;;;2.75;1.45;;;4.30;99.90;;;;;;6288601;22;20008;-84
2021/12/07 13:54:06;;;;;;;0.63;0.63;;;4.30;99.90;;;;;;6183515;23;20393;-85
2021/12/07 13:56:37;;;;;;;1.13;0.82;;;4.20;99.90;;;;;;6314280;22;20020;-85
2021/12/07 13:59:05;;;;;;;1.65;1.00;;;4.20;99.90;;;;;;6287981;22;20013;-85
2021/12/07 14:01:34;;;;;;;2.33;1.63;;;4.30;99.90;;;;;;6288734;22;20012;-84
2021/12/07 14:04:00;;;;;;;1.50;1.05;;;4.20;99.90;;;;;;6288651;22;20063;-85
2021/12/07 14:06:26;;;;;;;1.80;1.08;;;4.10;99.90;;;;;;6288131;22;20017;-85
2021/12/07 14:08:52;;;;;;;1.95;1.80;;;4.10;99.90;;;;;;6288407;22;20073;-85
2021/12/07 14:11:19;;;;;;;4.07;1.60;;;4.00;99.90;;;;;;6314438;22;20013;-85
2021/12/07 14:13:48;;;;;;;1.38;0.73;;;4.10;99.90;;;;;;6288643;22;20012;-85
2021/12/07 14:16:16;;;;;;;0.65;0.60;;;4.00;99.90;;;;;;6288331;22;20087;-85
2021/12/07 14:18:46;;;;;;;2.10;1.42;;;4.00;99.90;;;;;;6314540;22;20105;-85
2021/12/07 14:21:12;;;;;;;0.90;0.80;;;4.00;99.90;;;;;;6288614;22;20009;-85
2021/12/07 14:23:42;;;;;;;5.57;2.45;;;3.90;99.90;;;;;;6288524;22;20013;-85
2021/12/07 14:26:11;;;;;;;0.77;0.77;;;4.00;99.90;;;;;;6157492;22;20017;-85
2021/12/07 14:28:46;;;;;;;2.75;2.13;;;3.90;99.90;;;;;;6289054;22;20020;-85
2021/12/07 14:31:20;;;;;;;1.02;0.88;;;3.80;99.90;;;;;;6288422;22;20472;-85
2021/12/07 14:34:01;;;;;;;3.45;2.13;;;3.80;99.90;;;;;;6288581;22;20021;-85
2021/12/07 14:36:31;;;;;;;1.38;1.27;;;3.80;99.90;;;;;;6313976;22;20017;-85
2021/12/07 14:39:00;;;;;;;3.83;1.85;;;3.70;99.90;;;;;;6288068;22;20065;-85
2021/12/07 14:41:28;;;;;;;1.10;0.90;;;3.70;99.90;;;;;;6288545;22;20099;-85
2021/12/07 14:43:55;;;;;;;2.60;1.40;;;3.70;99.90;;;;;;6288769;22;20054;-85
2021/12/07 14:46:22;;;;;;;1.42;1.17;;;3.70;99.90;;;;;;6314189;22;20048;-85
2021/12/07 14:48:50;;;;;;;0.80;0.70;;;3.60;99.90;;;;;;6287941;22;20066;-85
2021/12/07 14:51:26;;;;;;;7.43;2.60;;;3.60;99.90;;;;;;6288192;22;20027;-85
2021/12/07 14:53:55;;;;;;;2.05;1.02;;;3.60;99.90;;;;;;6312117;22;20406;-85
2021/12/07 14:56:22;;;;;;;1.55;0.90;;;3.50;99.90;;;;;;6288551;22;20048;-85